createdAt,value
2023-04-24T00:00:41.977Z,99361.91
2023-04-24T00:03:11.200Z,99360.22
2023-04-24T00:05:41.406Z,99362.38
2023-04-24T00:08:09.592Z,99357.88
2023-04-24T00:10:38.610Z,99352.75
2023-04-24T00:13:09.191Z,99357.25
2023-04-24T00:15:37.668Z,99359.06
2023-04-24T00:18:05.936Z,99351.25
2023-04-24T00:20:36.830Z,99340.53
2023-04-24T00:23:05.090Z,99345.25
2023-04-24T00:25:32.914Z,99333.47
2023-04-24T00:28:03.336Z,99331.97
2023-04-24T00:30:31.724Z,99347.25
2023-04-24T00:33:00.179Z,99351.53
2023-04-24T00:35:30.079Z,99348.00
2023-04-24T00:37:58.363Z,99355.81
2023-04-24T00:40:26.319Z,99363.03
2023-04-24T00:42:55.472Z,99355.81
2023-04-24T00:45:24.287Z,99354.34
2023-04-24T00:47:54.947Z,99349.59
2023-04-24T00:50:25.069Z,99347.78
2023-04-24T00:52:54.325Z,99354.13
2023-04-24T00:55:22.539Z,99349.59
2023-04-24T00:57:51.887Z,99347.06
2023-04-24T01:00:22.021Z,99344.38
2023-04-24T01:02:53.429Z,99340.91
2023-04-24T01:05:21.715Z,99348.84
2023-04-24T01:07:51.583Z,99344.47
2023-04-24T01:10:21.658Z,99347.91
2023-04-24T01:12:49.735Z,99342.53
2023-04-24T01:15:17.568Z,99324.84
2023-04-24T01:17:49.227Z,99332.88
2023-04-24T01:20:18.412Z,99327.75
2023-04-24T01:22:46.342Z,99338.38
2023-04-24T01:25:14.124Z,99341.03
2023-04-24T01:27:42.166Z,99318.44
2023-04-24T01:30:13.294Z,99329.56
2023-04-24T01:32:45.315Z,99340.53
2023-04-24T01:35:14.408Z,99326.59
2023-04-24T01:37:42.558Z,99331.84
2023-04-24T01:40:12.843Z,99338.91
2023-04-24T01:42:43.096Z,99338.91
2023-04-24T01:45:13.957Z,99327.66
2023-04-24T01:47:43.401Z,99336.34
2023-04-24T01:50:11.893Z,99326.47
2023-04-24T01:52:40.960Z,99325.50
2023-04-24T01:55:13.787Z,99323.78
2023-04-24T01:57:42.151Z,99328.44
2023-04-24T02:00:12.558Z,99324.78
2023-04-24T02:02:46.498Z,99329.38
2023-04-24T02:05:16.510Z,99329.81
2023-04-24T02:07:45.684Z,99331.00
2023-04-24T02:10:13.739Z,99310.88
2023-04-24T02:12:45.382Z,99317.41
2023-04-24T02:15:13.492Z,99319.44
2023-04-24T02:17:41.720Z,99322.44
2023-04-24T02:20:11.218Z,99322.97
2023-04-24T02:22:40.269Z,99330.28
2023-04-24T02:25:09.697Z,99332.31
2023-04-24T02:27:38.601Z,99338.00
2023-04-24T02:30:09.897Z,99329.22
2023-04-24T02:32:38.294Z,99331.38
2023-04-24T02:35:07.017Z,99335.09
2023-04-24T02:37:36.726Z,99323.97
2023-04-24T02:40:09.760Z,99333.59
2023-04-24T02:42:37.894Z,99326.66
2023-04-24T02:45:08.202Z,99327.63
2023-04-24T02:47:36.405Z,99322.59
2023-04-24T02:50:05.773Z,99329.34
2023-04-24T02:52:34.266Z,99332.34
2023-04-24T02:55:02.838Z,99333.38
2023-04-24T02:57:33.548Z,99349.78
2023-04-24T03:00:04.437Z,99338.34
2023-04-24T03:02:33.292Z,99345.28
2023-04-24T03:05:01.313Z,99344.22
2023-04-24T03:07:29.794Z,99344.22
2023-04-24T03:09:59.460Z,99344.00
2023-04-24T03:12:28.504Z,99347.75
2023-04-24T03:14:57.666Z,99346.91
2023-04-24T03:17:25.617Z,99374.00
2023-04-24T03:19:53.527Z,99403.25
2023-04-24T03:22:24.098Z,99399.66
2023-04-24T03:24:56.492Z,99392.25
2023-04-24T03:27:25.816Z,99386.16
2023-04-24T03:30:02.258Z,99400.84
2023-04-24T03:32:42.445Z,99397.34
2023-04-24T03:35:14.859Z,99391.41
2023-04-24T03:37:44.803Z,99396.75
2023-04-24T03:40:42.345Z,99400.75
2023-04-24T03:43:28.629Z,99395.41
2023-04-24T03:46:00.642Z,99413.38
2023-04-24T03:48:29.593Z,99416.03
2023-04-24T03:50:59.765Z,99424.72
2023-04-24T03:53:27.752Z,99422.91
2023-04-24T03:55:58.421Z,99428.25
2023-04-24T03:58:27.099Z,99427.06
2023-04-24T04:00:59.416Z,99420.31
2023-04-24T04:03:48.818Z,99436.34
2023-04-24T04:06:22.550Z,99436.75
2023-04-24T04:08:54.428Z,99444.00
2023-04-24T04:11:22.976Z,99439.81
2023-04-24T04:13:52.191Z,99445.53
2023-04-24T04:16:24.533Z,99460.69
2023-04-24T04:18:57.315Z,99457.66
2023-04-24T04:21:29.116Z,99466.91
2023-04-24T04:24:08.667Z,99477.19
2023-04-24T04:26:41.935Z,99474.63
2023-04-24T04:29:13.041Z,99480.16
2023-04-24T04:31:45.481Z,99480.38
2023-04-24T04:34:15.848Z,99476.19
2023-04-24T04:36:44.671Z,99485.25
2023-04-24T04:39:42.993Z,99489.06
2023-04-24T04:42:15.030Z,99490.09
2023-04-24T04:44:47.628Z,99493.97
2023-04-24T04:47:24.880Z,99489.78
2023-04-24T04:49:56.507Z,99502.47
2023-04-24T04:52:28.596Z,99477.91
2023-04-24T04:55:10.541Z,99499.38
2023-04-24T04:58:12.469Z,99502.31
2023-04-24T05:00:40.795Z,99513.84
2023-04-24T05:03:21.671Z,99506.78
2023-04-24T05:05:59.863Z,99505.84
2023-04-24T05:08:29.820Z,99512.72
2023-04-24T05:10:58.498Z,99509.88
2023-04-24T05:13:38.991Z,99512.63
2023-04-24T05:16:13.934Z,99514.28
2023-04-24T05:18:46.507Z,99507.16
2023-04-24T05:21:17.612Z,99514.16
2023-04-24T05:23:49.743Z,99519.13
2023-04-24T05:26:29.271Z,99516.19
2023-04-24T05:29:01.214Z,99525.69
2023-04-24T05:31:31.580Z,99530.72
2023-04-24T05:34:02.160Z,99541.25
2023-04-24T05:36:33.615Z,99547.16
2023-04-24T05:39:08.194Z,99537.09
2023-04-24T05:41:36.976Z,99538.47
2023-04-24T05:44:05.075Z,99534.63
2023-04-24T05:46:34.461Z,99535.25
2023-04-24T05:49:04.526Z,99546.00
2023-04-24T05:51:37.296Z,99544.97
2023-04-24T05:54:07.320Z,99542.94
2023-04-24T05:56:35.850Z,99550.63
2023-04-24T05:59:08.684Z,99544.44
2023-04-24T06:01:38.577Z,99539.72
2023-04-24T06:04:16.191Z,99550.72
2023-04-24T06:06:46.344Z,99553.22
2023-04-24T06:09:23.268Z,99557.16
2023-04-24T06:11:56.934Z,99564.38
2023-04-24T06:14:32.526Z,99561.91
2023-04-24T06:17:20.010Z,99562.94
2023-04-24T06:19:49.164Z,99572.78
2023-04-24T06:22:18.467Z,99572.09
2023-04-24T06:24:46.423Z,99573.75
2023-04-24T06:27:19.372Z,99568.28
2023-04-24T06:29:54.442Z,99584.22
2023-04-24T06:32:25.495Z,99584.06
2023-04-24T06:35:00.648Z,99588.44
2023-04-24T06:37:30.895Z,99592.47
2023-04-24T06:40:01.276Z,99593.06
2023-04-24T06:42:32.511Z,99588.34
2023-04-24T06:45:01.052Z,99588.94
2023-04-24T06:47:31.975Z,99596.50
2023-04-24T06:50:13.624Z,99595.47
2023-04-24T06:52:45.327Z,99599.00
2023-04-24T06:55:16.796Z,99602.88
2023-04-24T06:57:45.924Z,99609.97
2023-04-24T07:00:15.030Z,99608.91
2023-04-24T07:02:43.690Z,99605.69
2023-04-24T07:05:18.436Z,99609.75
2023-04-24T07:07:49.419Z,99615.94
2023-04-24T07:10:18.148Z,99627.66
2023-04-24T07:12:46.550Z,99621.03
2023-04-24T07:15:17.373Z,99606.50
2023-04-24T07:17:47.581Z,99629.88
2023-04-24T07:20:17.407Z,99620.91
2023-04-24T07:22:50.180Z,99626.81
2023-04-24T07:25:21.444Z,99619.53
2023-04-24T07:27:52.398Z,99628.72
2023-04-24T07:30:20.493Z,99625.19
2023-04-24T07:32:50.235Z,99631.63
2023-04-24T07:35:18.672Z,99623.13
2023-04-24T07:37:49.542Z,99629.03
2023-04-24T07:40:20.634Z,99634.31
2023-04-24T07:42:50.425Z,99627.22
2023-04-24T07:45:19.010Z,99641.69
2023-04-24T07:47:48.856Z,99639.72
2023-04-24T07:50:17.534Z,99651.75
2023-04-24T07:52:45.731Z,99659.34
2023-04-24T07:55:14.342Z,99662.69
2023-04-24T07:57:44.284Z,99655.69
2023-04-24T08:00:16.792Z,99663.00
2023-04-24T08:02:45.688Z,99677.97
2023-04-24T08:05:15.625Z,99689.25
2023-04-24T08:07:43.921Z,99686.59
2023-04-24T08:10:12.675Z,99691.09
2023-04-24T08:12:41.735Z,99695.69
2023-04-24T08:15:12.751Z,99699.78
2023-04-24T08:17:41.707Z,99694.81
2023-04-24T08:20:15.072Z,99701.38
2023-04-24T08:22:50.804Z,99703.66
2023-04-24T08:25:26.774Z,99702.72
2023-04-24T08:27:56.773Z,99712.84
2023-04-24T08:30:25.068Z,99706.94
2023-04-24T08:32:55.190Z,99711.63
2023-04-24T08:35:27.604Z,99714.13
2023-04-24T08:37:58.851Z,99704.69
2023-04-24T08:40:37.152Z,99708.50
2023-04-24T08:43:05.628Z,99706.16
2023-04-24T08:45:35.751Z,99705.09
2023-04-24T08:48:07.971Z,99707.97
2023-04-24T08:50:42.745Z,99721.38
2023-04-24T08:53:11.154Z,99723.88
2023-04-24T08:55:44.967Z,99712.53
2023-04-24T08:58:15.621Z,99724.97
2023-04-24T09:00:48.169Z,99725.44
2023-04-24T09:03:18.938Z,99734.78
2023-04-24T09:05:51.752Z,99739.28
2023-04-24T09:08:26.298Z,99735.09
2023-04-24T09:10:54.807Z,99732.28
2023-04-24T09:13:26.212Z,99750.53
2023-04-24T09:15:58.711Z,99751.03
2023-04-24T09:18:33.054Z,99750.69
2023-04-24T09:21:08.505Z,99737.38
2023-04-24T09:23:46.428Z,99761.81
2023-04-24T09:26:15.263Z,99760.22
2023-04-24T09:28:46.600Z,99756.97
2023-04-24T09:31:23.182Z,99765.75
2023-04-24T09:34:11.646Z,99770.38
2023-04-24T09:36:44.848Z,99779.69
2023-04-24T09:39:17.977Z,99779.13
2023-04-24T09:42:00.545Z,99785.66
2023-04-24T09:44:29.811Z,99793.53
2023-04-24T09:47:01.626Z,99784.78
2023-04-24T09:49:37.321Z,99799.34
2023-04-24T09:52:10.027Z,99782.50
2023-04-24T09:54:40.216Z,99765.66
2023-04-24T09:57:12.339Z,99786.03
2023-04-24T10:00:03.770Z,99790.75
2023-04-24T10:02:46.523Z,99776.06
2023-04-24T10:05:16.917Z,99797.22
2023-04-24T10:07:49.006Z,99796.03
2023-04-24T10:10:21.716Z,99792.53
2023-04-24T10:12:54.086Z,99784.84
2023-04-24T10:15:24.451Z,99790.22
2023-04-24T10:17:56.184Z,99787.91
2023-04-24T10:20:28.358Z,99794.78
2023-04-24T10:22:59.109Z,99792.09
2023-04-24T10:25:36.231Z,99793.38
2023-04-24T10:28:11.343Z,99797.84
2023-04-24T10:30:43.762Z,99793.31
2023-04-24T10:33:16.722Z,99818.03
2023-04-24T10:35:52.165Z,99822.59
2023-04-24T10:38:31.079Z,99829.69
2023-04-24T10:41:21.536Z,99837.03
2023-04-24T10:44:05.594Z,99830.53
2023-04-24T10:46:35.203Z,99843.56
2023-04-24T10:49:10.043Z,99841.28
2023-04-24T10:51:56.739Z,99852.00
2023-04-24T10:54:25.496Z,99856.16
2023-04-24T10:57:14.656Z,99850.91
2023-04-24T10:59:42.429Z,99846.34
2023-04-24T11:02:13.659Z,99833.31
2023-04-24T11:04:42.261Z,99832.47
2023-04-24T11:07:15.440Z,99828.53
2023-04-24T11:09:45.492Z,99831.50
2023-04-24T11:12:15.077Z,99838.13
2023-04-24T11:14:58.869Z,99839.72
2023-04-24T11:17:43.306Z,99834.63
2023-04-24T11:20:27.415Z,99827.06
2023-04-24T11:23:05.146Z,99832.19
2023-04-24T11:25:36.465Z,99841.03
2023-04-24T11:28:08.726Z,99837.78
2023-04-24T11:30:40.799Z,99834.72
2023-04-24T11:33:22.374Z,99857.53
2023-04-24T11:35:52.339Z,99857.66
2023-04-24T11:38:24.494Z,99869.88
2023-04-24T11:40:54.902Z,99878.47
2023-04-24T11:43:24.599Z,99871.13
2023-04-24T11:45:52.463Z,99868.66
2023-04-24T11:48:23.708Z,99880.22
2023-04-24T11:50:52.553Z,99870.25
2023-04-24T11:53:22.884Z,99889.22
2023-04-24T11:55:51.555Z,99885.28
2023-04-24T11:58:22.939Z,99883.28
2023-04-24T12:00:57.264Z,99877.06
2023-04-24T12:03:27.000Z,99870.44
2023-04-24T12:06:08.717Z,99870.19
2023-04-24T12:08:38.426Z,99882.84
2023-04-24T12:11:08.597Z,99872.72
2023-04-24T12:13:39.923Z,99856.72
2023-04-24T12:16:10.346Z,99871.09
2023-04-24T12:18:46.475Z,99867.19
2023-04-24T12:21:27.632Z,99876.56
2023-04-24T12:23:58.107Z,99861.00
2023-04-24T12:26:26.762Z,99868.34
2023-04-24T12:28:55.284Z,99871.38
2023-04-24T12:31:23.536Z,99861.59
2023-04-24T12:33:53.762Z,99862.56
2023-04-24T12:36:23.128Z,99860.66
2023-04-24T12:38:56.845Z,99863.00
2023-04-24T12:41:24.675Z,99861.28
2023-04-24T12:43:54.900Z,99863.00
2023-04-24T12:46:22.976Z,99865.38
2023-04-24T12:48:52.534Z,99859.78
2023-04-24T12:51:20.304Z,99848.94
2023-04-24T12:53:49.994Z,99866.25
2023-04-24T12:56:20.799Z,99867.84
2023-04-24T12:58:48.586Z,99860.13
2023-04-24T13:01:16.318Z,99863.88
2023-04-24T13:03:46.389Z,99861.63
2023-04-24T13:06:15.405Z,99857.09
2023-04-24T13:08:43.361Z,99856.88
2023-04-24T13:11:11.090Z,99859.56
2023-04-24T13:13:38.975Z,99855.19
2023-04-24T13:16:07.028Z,99865.59
2023-04-24T13:18:34.767Z,99850.97
2023-04-24T13:21:02.511Z,99853.13
2023-04-24T13:23:30.269Z,99854.66
2023-04-24T13:25:58.639Z,99856.81
2023-04-24T13:28:27.798Z,99859.25
2023-04-24T13:30:55.764Z,99853.13
2023-04-24T13:33:25.120Z,99851.75
2023-04-24T13:35:54.855Z,99864.88
2023-04-24T13:38:23.605Z,99861.41
2023-04-24T13:40:52.149Z,99860.88
2023-04-24T13:43:19.817Z,99868.41
2023-04-24T13:45:47.599Z,99864.88
2023-04-24T13:48:24.815Z,99861.50
2023-04-24T13:50:52.528Z,99853.56
2023-04-24T13:53:23.765Z,99865.53
2023-04-24T13:55:51.620Z,99853.25
2023-04-24T13:58:19.312Z,99862.59
2023-04-24T14:00:52.438Z,99867.00
2023-04-24T14:03:22.424Z,99864.22
2023-04-24T14:05:51.450Z,99857.66
2023-04-24T14:08:19.179Z,99858.28
2023-04-24T14:10:46.972Z,99862.34
2023-04-24T14:13:15.507Z,99861.28
2023-04-24T14:15:43.454Z,99846.31
2023-04-24T14:18:11.337Z,99847.94
2023-04-24T14:20:39.082Z,99848.47
2023-04-24T14:23:06.748Z,99837.38
2023-04-24T14:25:40.761Z,99839.22
2023-04-24T14:28:08.583Z,99838.97
2023-04-24T14:30:38.420Z,99831.66
2023-04-24T14:33:06.344Z,99835.09
2023-04-24T14:35:35.187Z,99821.97
2023-04-24T14:38:04.445Z,99820.66
2023-04-24T14:40:56.108Z,99815.72
2023-04-24T14:43:22.725Z,99820.63
2023-04-24T14:45:50.871Z,99830.19
2023-04-24T14:48:21.939Z,99838.88
2023-04-24T14:50:49.711Z,99835.34
2023-04-24T14:53:21.134Z,99837.84
2023-04-24T14:55:50.401Z,99836.94
2023-04-24T14:58:18.222Z,99834.91
2023-04-24T15:00:50.587Z,99838.78
2023-04-24T15:03:20.194Z,99837.28
2023-04-24T15:05:48.468Z,99832.88
2023-04-24T15:08:16.356Z,99829.13
2023-04-24T15:10:44.315Z,99824.09
2023-04-24T15:13:15.598Z,99833.44
2023-04-24T15:15:47.235Z,99837.53
2023-04-24T15:18:15.084Z,99841.19
2023-04-24T15:20:42.831Z,99843.16
2023-04-24T15:23:12.354Z,99843.78
2023-04-24T15:25:41.754Z,99840.34
2023-04-24T15:28:10.368Z,99840.34
2023-04-24T15:30:38.103Z,99835.41
2023-04-24T15:33:07.366Z,99836.44
2023-04-24T15:35:35.177Z,99841.94
2023-04-24T15:38:09.397Z,99845.94
2023-04-24T15:40:38.396Z,99843.44
2023-04-24T15:43:06.154Z,99855.50
2023-04-24T15:45:35.380Z,99859.03
2023-04-24T15:48:03.314Z,99861.84
2023-04-24T15:50:33.202Z,99856.56
2023-04-24T15:53:01.066Z,99858.06
2023-04-24T15:55:30.832Z,99852.25
2023-04-24T15:58:00.047Z,99858.69
2023-04-24T16:00:34.429Z,99881.63
2023-04-24T16:03:09.373Z,99886.84
2023-04-24T16:05:37.869Z,99862.13
2023-04-24T16:08:08.255Z,99860.59
2023-04-24T16:10:37.952Z,99866.75
2023-04-24T16:13:06.359Z,99875.72
2023-04-24T16:15:36.643Z,99880.78
2023-04-24T16:18:04.827Z,99878.13
2023-04-24T16:20:34.032Z,99883.06
2023-04-24T16:23:03.517Z,99876.09
2023-04-24T16:25:32.701Z,99875.13
2023-04-24T16:28:00.672Z,99872.31
2023-04-24T16:30:28.750Z,99873.13
2023-04-24T16:32:57.857Z,99878.31
2023-04-24T16:35:25.511Z,99867.47
2023-04-24T16:37:53.356Z,99861.97
2023-04-24T16:40:22.116Z,99869.06
2023-04-24T16:42:50.156Z,99858.75
2023-04-24T16:45:17.999Z,99863.06
2023-04-24T16:47:45.783Z,99864.13
2023-04-24T16:50:13.613Z,99868.50
2023-04-24T16:52:42.005Z,99862.69
2023-04-24T16:55:10.682Z,99855.03
2023-04-24T16:57:42.075Z,99870.47
2023-04-24T17:00:12.279Z,99872.91
2023-04-24T17:02:42.587Z,99881.38
2023-04-24T17:05:12.582Z,99885.41
2023-04-24T17:07:47.862Z,99902.19
2023-04-24T17:10:16.035Z,99921.84
2023-04-24T17:12:45.094Z,99909.25
2023-04-24T17:15:12.830Z,99890.19
2023-04-24T17:17:46.217Z,99894.13
2023-04-24T17:20:22.084Z,99895.72
2023-04-24T17:22:51.488Z,99901.75
2023-04-24T17:25:19.429Z,99888.56
2023-04-24T17:27:47.364Z,99898.59
2023-04-24T17:30:17.981Z,99894.28
2023-04-24T17:32:46.555Z,99887.75
2023-04-24T17:35:14.448Z,99894.84
2023-04-24T17:37:46.514Z,99895.91
2023-04-24T17:40:14.761Z,99896.75
2023-04-24T17:42:42.665Z,99894.06
2023-04-24T17:45:11.273Z,99883.25
2023-04-24T17:47:39.082Z,99881.38
2023-04-24T17:50:07.295Z,99880.41
2023-04-24T17:52:35.419Z,99876.00
2023-04-24T17:55:04.960Z,99879.81
2023-04-24T17:57:34.669Z,99885.16
2023-04-24T18:00:05.553Z,99880.38
2023-04-24T18:02:33.988Z,99883.75
2023-04-24T18:05:02.027Z,99895.78
2023-04-24T18:07:30.347Z,99890.44
2023-04-24T18:09:58.181Z,99880.00
2023-04-24T18:12:31.261Z,99888.81
2023-04-24T18:15:12.950Z,99889.00
2023-04-24T18:17:41.902Z,99898.84
2023-04-24T18:20:11.381Z,99887.47
2023-04-24T18:22:40.325Z,99899.81
2023-04-24T18:25:09.824Z,99886.88
2023-04-24T18:27:40.769Z,99907.34
2023-04-24T18:30:14.246Z,99911.38
2023-04-24T18:32:54.375Z,99920.81
2023-04-24T18:35:24.126Z,99921.28
2023-04-24T18:37:52.856Z,99925.09
2023-04-24T18:40:21.020Z,99925.34
2023-04-24T18:42:48.958Z,99913.47
2023-04-24T18:45:23.184Z,99915.28
2023-04-24T18:47:50.986Z,99918.31
2023-04-24T18:50:19.397Z,99921.22
2023-04-24T18:52:48.835Z,99919.69
2023-04-24T18:55:16.637Z,99929.44
2023-04-24T18:57:44.416Z,99930.28
2023-04-24T19:00:12.835Z,99937.44
2023-04-24T19:02:40.821Z,99929.69
2023-04-24T19:05:10.401Z,99930.91
2023-04-24T19:07:38.229Z,99932.78
2023-04-24T19:10:08.884Z,99936.75
2023-04-24T19:12:38.091Z,99947.66
2023-04-24T19:15:12.465Z,99946.59
2023-04-24T19:17:43.753Z,99945.94
2023-04-24T19:20:12.087Z,99961.81
2023-04-24T19:22:41.538Z,99962.06
2023-04-24T19:25:09.574Z,99954.91
2023-04-24T19:27:37.341Z,99943.66
2023-04-24T19:30:08.418Z,99954.91
2023-04-24T19:32:36.325Z,99958.53
2023-04-24T19:35:04.474Z,99963.81
2023-04-24T19:37:37.416Z,99962.88
2023-04-24T19:40:06.253Z,99959.22
2023-04-24T19:42:43.358Z,99961.81
2023-04-24T19:45:14.763Z,99960.94
2023-04-24T19:47:43.138Z,99953.97
2023-04-24T19:50:16.826Z,99950.44
2023-04-24T19:52:44.536Z,99956.44
2023-04-24T19:55:13.932Z,99953.03
2023-04-24T19:57:42.453Z,99962.00
2023-04-24T20:00:12.304Z,99949.75
2023-04-24T20:02:41.962Z,99954.38
2023-04-24T20:05:10.139Z,99955.16
2023-04-24T20:07:39.415Z,99965.53
2023-04-24T20:10:07.960Z,99962.06
2023-04-24T20:12:36.672Z,99960.16
2023-04-24T20:15:06.475Z,99966.47
2023-04-24T20:17:37.235Z,99973.19
2023-04-24T20:20:06.196Z,99963.69
2023-04-24T20:22:38.681Z,99961.47
2023-04-24T20:25:12.905Z,99967.13
2023-04-24T20:27:41.252Z,99962.31
2023-04-24T20:30:12.901Z,99960.56
2023-04-24T20:32:45.052Z,99954.69
2023-04-24T20:35:12.817Z,99958.13
2023-04-24T20:37:41.351Z,99951.94
2023-04-24T20:40:09.891Z,99952.78
2023-04-24T20:42:38.369Z,99953.75
2023-04-24T20:45:06.977Z,99937.66
2023-04-24T20:47:35.592Z,99940.22
2023-04-24T20:50:05.357Z,99940.94
2023-04-24T20:52:37.583Z,99938.06
2023-04-24T20:55:06.898Z,99940.59
2023-04-24T20:57:35.422Z,99931.59
2023-04-24T21:00:08.032Z,99939.38
2023-04-24T21:02:36.021Z,99919.81
2023-04-24T21:05:04.415Z,99925.75
2023-04-24T21:07:32.330Z,99923.19
2023-04-24T21:10:00.127Z,99922.97
2023-04-24T21:12:27.889Z,99925.66
2023-04-24T21:14:55.610Z,99907.88
2023-04-24T21:17:23.413Z,99911.16
2023-04-24T21:19:51.308Z,99918.16
2023-04-24T21:22:19.041Z,99907.47
2023-04-24T21:24:46.693Z,99913.59
2023-04-24T21:27:14.600Z,99912.72
2023-04-24T21:29:42.514Z,99910.91
2023-04-24T21:32:10.352Z,99902.72
2023-04-24T21:34:38.212Z,99917.81
2023-04-24T21:37:06.492Z,99906.31
2023-04-24T21:39:34.198Z,99910.66
2023-04-24T21:42:01.897Z,99913.41
2023-04-24T21:44:29.903Z,99923.16
2023-04-24T21:46:57.713Z,99908.06
2023-04-24T21:49:25.422Z,99907.19
2023-04-24T21:51:53.313Z,99898.50
2023-04-24T21:54:21.237Z,99905.72
2023-04-24T21:56:49.093Z,99914.91
2023-04-24T21:59:17.577Z,99916.88
2023-04-24T22:01:45.435Z,99914.34
2023-04-24T22:04:13.599Z,99924.19
2023-04-24T22:06:42.148Z,99919.91
2023-04-24T22:09:10.917Z,99912.13
2023-04-24T22:11:38.830Z,99918.41
2023-04-24T22:14:07.076Z,99912.44
2023-04-24T22:16:35.247Z,99916.06
2023-04-24T22:19:03.200Z,99904.88
2023-04-24T22:21:31.511Z,99904.88
2023-04-24T22:23:59.421Z,99904.25
2023-04-24T22:26:27.294Z,99902.34
2023-04-24T22:28:55.096Z,99905.13
2023-04-24T22:31:23.481Z,99905.22
2023-04-24T22:33:51.689Z,99896.50
2023-04-24T22:36:19.661Z,99889.75
2023-04-24T22:38:47.428Z,99885.28
2023-04-24T22:41:15.251Z,99896.13
2023-04-24T22:43:43.043Z,99879.59
2023-04-24T22:46:10.757Z,99885.00
2023-04-24T22:48:38.809Z,99891.03
2023-04-24T22:51:06.754Z,99880.44
2023-04-24T22:53:36.140Z,99876.22
2023-04-24T22:56:04.139Z,99873.63
2023-04-24T22:58:32.562Z,99880.69
2023-04-24T23:01:00.389Z,99879.75
2023-04-24T23:03:28.327Z,99873.63
2023-04-24T23:05:56.398Z,99872.03
2023-04-24T23:08:24.152Z,99871.34
2023-04-24T23:10:51.960Z,99867.00
2023-04-24T23:13:19.830Z,99859.34
2023-04-24T23:15:47.601Z,99864.66
2023-04-24T23:18:15.463Z,99869.25
2023-04-24T23:20:43.200Z,99869.25
2023-04-24T23:23:11.061Z,99867.69
2023-04-24T23:25:39.319Z,99863.34
2023-04-24T23:28:07.016Z,99874.84
2023-04-24T23:30:34.764Z,99866.91
2023-04-24T23:33:02.596Z,99869.59
2023-04-24T23:35:30.926Z,99871.31
2023-04-24T23:37:58.684Z,99865.16
2023-04-24T23:40:27.000Z,99863.34
2023-04-24T23:43:06.226Z,99865.16
2023-04-24T23:45:35.711Z,99866.13
2023-04-24T23:48:04.598Z,99863.34
2023-04-24T23:50:32.578Z,99855.34
2023-04-24T23:53:00.602Z,99846.72
2023-04-24T23:55:28.425Z,99858.81
2023-04-24T23:57:56.333Z,99856.22
